createdAt,value
2022-08-17T00:01:53.081Z,0
2022-08-17T00:07:11.347Z,0
2022-08-17T00:12:42.471Z,0
2022-08-17T00:17:50.020Z,0
2022-08-17T00:23:09.227Z,0
2022-08-17T00:28:28.221Z,0
2022-08-17T00:33:47.312Z,0
2022-08-17T00:44:25.283Z,0
2022-08-17T00:49:54.598Z,0
2022-08-17T00:55:03.822Z,0
2022-08-17T01:00:22.689Z,0
2022-08-17T01:05:42.620Z,0
2022-08-17T01:11:01.887Z,0
2022-08-17T01:16:31.536Z,0
2022-08-17T01:21:40.200Z,0
2022-08-17T01:26:59.776Z,0
2022-08-17T01:32:19.352Z,0
2022-08-17T01:37:38.312Z,0
2022-08-17T01:42:57.842Z,0
2022-08-17T01:48:17.319Z,0
2022-08-17T01:53:36.790Z,0
2022-08-17T01:58:56.387Z,0
2022-08-17T02:04:15.690Z,0
2022-08-17T02:09:34.618Z,0
2022-08-17T02:20:13.515Z,0
2022-08-17T02:25:32.982Z,0
2022-08-17T02:31:00.558Z,0
2022-08-17T02:36:10.947Z,0
2022-08-17T02:41:29.743Z,0
2022-08-17T02:46:49.248Z,0
2022-08-17T02:56:25.286Z,0
2022-08-17T03:00:41.792Z,0
2022-08-17T03:18:44.382Z,0
2022-08-17T03:24:05.922Z,0
2022-08-17T03:29:23.045Z,0
2022-08-17T03:34:42.296Z,0
2022-08-17T03:40:13.930Z,0
2022-08-17T03:48:34.947Z,0
2022-08-17T03:50:41.044Z,0
2022-08-17T04:04:33.397Z,0.0131
2022-08-17T04:06:39.118Z,0.0272
2022-08-17T04:17:16.813Z,0.0392
2022-08-17T04:22:35.950Z,0.0447
2022-08-17T04:27:54.957Z,0.0524
2022-08-17T04:33:14.554Z,0.0639
2022-08-17T04:43:52.806Z,0.0862
2022-08-17T04:49:12.397Z,0.1008
2022-08-17T04:54:31.428Z,0.1088
2022-08-17T04:59:50.630Z,0.1059
2022-08-17T05:05:09.438Z,0.105
2022-08-17T05:10:28.217Z,0.1064
2022-08-17T05:15:47.610Z,0.0989
2022-08-17T05:21:06.148Z,0.1144
2022-08-17T05:26:26.596Z,0.183
2022-08-17T05:43:31.057Z,0.2584
2022-08-17T05:47:41.720Z,0.1938
2022-08-17T05:56:27.993Z,0.1669
2022-08-17T05:58:20.233Z,0.1781
2022-08-17T06:03:50.464Z,0.1833
2022-08-17T06:08:58.462Z,0.1844
2022-08-17T06:14:17.711Z,0.1892
2022-08-17T06:19:36.728Z,0.1936
2022-08-17T06:28:09.806Z,0.1989
2022-08-17T06:30:14.700Z,0.205
2022-08-17T06:35:34.111Z,0.2137
2022-08-17T06:40:53.331Z,0.2195
2022-08-17T06:46:12.938Z,0.2221
2022-08-17T06:54:45.998Z,0.2311
2022-08-17T06:56:52.871Z,0.2408
2022-08-17T07:07:29.693Z,0.2841
2022-08-17T07:12:48.834Z,0.3018
2022-08-17T07:23:26.756Z,0.2997
2022-08-17T07:28:45.653Z,0.2876
2022-08-17T07:34:04.551Z,0.2931
2022-08-17T07:39:23.718Z,0.2894
2022-08-17T07:44:42.807Z,0.2868
2022-08-17T07:50:02.313Z,0.2884
2022-08-17T07:58:35.366Z,0.3289
2022-08-17T08:05:59.570Z,0.5015
2022-08-17T08:11:18.251Z,0.6334
2022-08-17T08:16:37.611Z,1.3996
2022-08-17T08:21:57.078Z,1.511
2022-08-17T08:27:16.682Z,0.6076
2022-08-17T08:32:36.209Z,0.5178
2022-08-17T08:37:55.024Z,0.5292
2022-08-17T08:48:46.361Z,0.8318
2022-08-17T08:53:51.880Z,0.839
2022-08-17T08:59:10.829Z,0.7348
2022-08-17T09:04:29.866Z,0.6491
2022-08-17T09:09:49.143Z,0.5764
2022-08-17T09:15:12.802Z,0.5967
2022-08-17T09:20:28.748Z,0.5758
2022-08-17T09:25:47.482Z,0.6239
2022-08-17T09:31:06.406Z,0.8333
2022-08-17T09:41:48.624Z,2.1596
2022-08-17T09:47:03.972Z,0.8772
2022-08-17T09:52:23.008Z,0.9901
2022-08-17T09:57:42.204Z,0.7556
2022-08-17T10:11:34.622Z,0.733
2022-08-17T10:13:39.383Z,0.7195
2022-08-17T10:24:17.227Z,0.7959
2022-08-17T10:29:47.473Z,0.9616
2022-08-17T10:34:55.470Z,1.1178
2022-08-17T10:40:14.755Z,1.2191
2022-08-17T10:45:47.022Z,0.9091
2022-08-17T10:50:53.181Z,0.7823
2022-08-17T10:56:12.311Z,0.8494
2022-08-17T11:01:31.190Z,1.0384
2022-08-17T11:06:49.895Z,0.8944
2022-08-17T11:12:09.439Z,1.2338
2022-08-17T11:22:47.645Z,0.5293
2022-08-17T11:28:06.727Z,0.4325
2022-08-17T11:36:39.777Z,0.546
2022-08-17T11:38:44.794Z,0.6759
2022-08-17T11:49:23.707Z,0.4519
2022-08-17T11:54:42.739Z,0.5064
2022-08-17T12:05:20.679Z,0.7078
2022-08-17T12:10:39.687Z,0.5691
2022-08-17T12:15:59.024Z,0.3936
2022-08-17T12:24:32.081Z,0.3393
2022-08-17T12:26:36.720Z,0.3341
2022-08-17T12:37:15.153Z,0.2306
2022-08-17T12:45:48.221Z,0.2151
2022-08-17T12:47:53.092Z,0.2119
2022-08-17T12:53:12.381Z,0.2291
2022-08-17T12:58:31.535Z,0.2766
2022-08-17T13:03:50.852Z,0.2652
2022-08-17T13:09:10.367Z,0.2675
2022-08-17T13:14:29.279Z,0.3414
2022-08-17T13:19:48.030Z,0.5749
2022-08-17T13:25:07.172Z,0.6404
2022-08-17T13:30:26.558Z,0.5571
2022-08-17T13:35:50.362Z,0.6988
2022-08-17T13:46:24.022Z,0.5411
2022-08-17T13:51:42.869Z,0.5636
2022-08-17T13:57:01.740Z,0.4023
2022-08-17T14:02:21.328Z,0.4701
2022-08-17T14:07:40.908Z,0.4637
2022-08-17T14:12:59.911Z,0.3521
2022-08-17T14:18:35.575Z,0.3339
2022-08-17T14:23:38.546Z,0.3791
2022-08-17T14:28:57.806Z,0.392
2022-08-17T14:34:17.051Z,0.3923
2022-08-17T14:39:36.588Z,0.7293
2022-08-17T14:44:56.071Z,1.1549
2022-08-17T14:50:14.786Z,0.9876
2022-08-17T14:55:34.247Z,0.5322
2022-08-17T15:00:53.538Z,0.4844
2022-08-17T15:06:13.080Z,0.4789
2022-08-17T15:11:31.776Z,0.4606
2022-08-17T15:16:51.236Z,0.5136
2022-08-17T15:32:51.071Z,0.4141
2022-08-17T15:43:28.047Z,0.3877
2022-08-17T15:48:46.391Z,0.3872
2022-08-17T15:54:17.336Z,0.3819
2022-08-17T15:59:24.386Z,0.3573
2022-08-17T16:04:44.063Z,0.3478
2022-08-17T16:10:34.935Z,0.3706
2022-08-17T16:19:03.936Z,0.3561
2022-08-17T16:23:20.464Z,0.3175
2022-08-17T16:31:53.517Z,0.3489
2022-08-17T16:37:06.832Z,0.3263
2022-08-17T16:58:24.617Z,0.1982
2022-08-17T17:06:57.653Z,0.1814
2022-08-17T17:09:03.624Z,0.1776
2022-08-17T17:14:22.657Z,0.1863
2022-08-17T17:19:41.302Z,0.1698
2022-08-17T17:25:00.612Z,0.1456
2022-08-17T17:30:19.946Z,0.1299
2022-08-17T17:35:38.659Z,0.1176
2022-08-17T17:41:00.510Z,0.0998
2022-08-17T17:46:28.159Z,0.0879
2022-08-17T17:51:54.851Z,0.085
2022-08-17T17:56:55.205Z,0.0766
2022-08-17T18:02:14.650Z,0.0662
2022-08-17T18:07:34.201Z,0.0585
2022-08-17T18:12:53.107Z,0.0521
2022-08-17T18:18:11.757Z,0.041
2022-08-17T18:23:30.943Z,0.0339
2022-08-17T18:34:23.328Z,0.0286
2022-08-17T18:42:42.515Z,0.019
2022-08-17T18:46:59.283Z,0.0072
2022-08-17T18:50:06.971Z,0.0006
2022-08-17T18:55:26.637Z,0
2022-08-17T19:00:45.160Z,0
2022-08-17T19:06:04.785Z,0
2022-08-17T19:11:24.194Z,0
2022-08-17T19:16:43.533Z,0
2022-08-17T19:22:02.290Z,0
2022-08-17T19:32:40.540Z,0
2022-08-17T19:37:59.870Z,0
2022-08-17T19:43:18.868Z,0
2022-08-17T19:48:37.929Z,0
2022-08-17T19:59:16.084Z,0
2022-08-17T20:04:35.730Z,0
2022-08-17T20:15:13.423Z,0
2022-08-17T20:20:45.940Z,0
2022-08-17T20:25:51.169Z,0
2022-08-17T20:31:10.723Z,0
2022-08-17T20:39:43.836Z,0
2022-08-17T20:47:08.002Z,0
2022-08-17T20:57:46.346Z,0
2022-08-17T21:06:19.391Z,0
2022-08-17T21:19:16.845Z,0
2022-08-17T21:24:23.015Z,0
2022-08-17T21:29:42.402Z,0
2022-08-17T21:35:02.007Z,0
2022-08-17T21:40:20.763Z,0
2022-08-17T21:45:40.288Z,0
2022-08-17T21:56:18.746Z,0
2022-08-17T22:01:37.687Z,0
2022-08-17T22:06:57.454Z,0
2022-08-17T22:12:15.353Z,0
2022-08-17T22:17:34.152Z,0
2022-08-17T22:22:52.937Z,0
2022-08-17T22:33:30.549Z,0
2022-08-17T22:38:49.486Z,0
2022-08-17T22:49:27.331Z,0
2022-08-17T22:54:46.396Z,0
2022-08-17T23:00:05.485Z,0
2022-08-17T23:05:24.528Z,0
2022-08-17T23:16:02.905Z,0
2022-08-17T23:21:25.734Z,0
2022-08-17T23:29:55.236Z,0
2022-08-17T23:32:00.250Z,0
2022-08-17T23:37:19.575Z,0
2022-08-17T23:42:42.061Z,0
2022-08-17T23:47:57.814Z,0
2022-08-17T23:53:27.698Z,0
2022-08-17T23:58:35.619Z,0
